createdAt,value
2023-01-25T00:02:04.979Z,88.47
2023-01-25T00:04:34.385Z,88.44
2023-01-25T00:07:04.199Z,87.99
2023-01-25T00:09:33.438Z,88.02
2023-01-25T00:12:02.966Z,88.36
2023-01-25T00:14:32.189Z,87.72
2023-01-25T00:17:01.418Z,87.85
2023-01-25T00:19:30.979Z,87.58
2023-01-25T00:22:00.509Z,87.80
2023-01-25T00:24:29.728Z,87.64
2023-01-25T00:26:58.959Z,87.66
2023-01-25T00:29:28.259Z,87.85
2023-01-25T00:32:09.397Z,87.40
2023-01-25T00:34:50.168Z,87.74
2023-01-25T00:37:37.814Z,87.12
2023-01-25T00:40:08.274Z,87.99
2023-01-25T00:42:39.668Z,88.71
2023-01-25T00:45:10.820Z,88.36
2023-01-25T00:47:40.359Z,88.02
2023-01-25T00:50:10.516Z,88.23
2023-01-25T00:52:41.726Z,88.13
2023-01-25T00:55:11.400Z,88.09
2023-01-25T00:57:40.595Z,87.46
2023-01-25T01:00:11.272Z,87.20
2023-01-25T01:02:40.632Z,87.56
2023-01-25T01:05:11.064Z,87.65
2023-01-25T01:07:40.612Z,87.87
2023-01-25T01:10:10.777Z,87.75
2023-01-25T01:12:39.983Z,88.06
2023-01-25T01:15:10.547Z,88.22
2023-01-25T01:17:40.056Z,88.44
2023-01-25T01:20:10.306Z,88.22
2023-01-25T01:22:39.547Z,88.61
2023-01-25T01:25:10.893Z,88.41
2023-01-25T01:27:40.429Z,88.39
2023-01-25T01:30:11.515Z,88.45
2023-01-25T01:32:41.163Z,88.19
2023-01-25T01:35:11.102Z,88.05
2023-01-25T01:37:43.234Z,87.44
2023-01-25T01:40:17.864Z,87.89
2023-01-25T01:43:04.670Z,88.53
2023-01-25T01:45:50.890Z,89.05
2023-01-25T01:48:27.994Z,89.05
2023-01-25T01:51:01.236Z,89.10
2023-01-25T01:53:32.281Z,89.08
2023-01-25T01:56:04.060Z,88.25
2023-01-25T01:58:34.039Z,88.47
2023-01-25T02:01:05.063Z,88.08
2023-01-25T02:03:34.984Z,88.21
2023-01-25T02:06:07.926Z,88.62
2023-01-25T02:08:39.603Z,88.35
2023-01-25T02:11:11.158Z,88.67
2023-01-25T02:13:40.473Z,88.51
2023-01-25T02:16:17.877Z,87.53
2023-01-25T02:18:47.939Z,88.25
2023-01-25T02:21:17.339Z,89.06
2023-01-25T02:24:14.045Z,88.46
2023-01-25T02:26:43.266Z,87.86
2023-01-25T02:29:12.885Z,88.71
2023-01-25T02:31:46.328Z,88.20
2023-01-25T02:34:15.966Z,88.20
2023-01-25T02:36:45.235Z,88.01
2023-01-25T02:39:20.045Z,88.47
2023-01-25T02:41:49.717Z,88.07
2023-01-25T02:44:25.152Z,88.29
2023-01-25T02:46:54.683Z,88.09
2023-01-25T02:49:25.005Z,89.09
2023-01-25T02:51:59.089Z,88.18
2023-01-25T02:54:28.826Z,88.46
2023-01-25T02:56:58.444Z,88.07
2023-01-25T02:59:28.757Z,88.46
2023-01-25T03:01:59.682Z,88.21
2023-01-25T03:04:29.724Z,87.95
2023-01-25T03:06:59.118Z,89.13
2023-01-25T03:09:28.587Z,87.86
2023-01-25T03:11:57.861Z,87.52
2023-01-25T03:14:27.481Z,87.74
2023-01-25T03:16:56.803Z,87.50
2023-01-25T03:19:27.503Z,87.42
2023-01-25T03:21:56.862Z,87.33
2023-01-25T03:24:26.999Z,87.43
2023-01-25T03:27:11.518Z,87.84
2023-01-25T03:29:42.744Z,87.92
2023-01-25T03:32:13.775Z,87.83
2023-01-25T03:34:43.597Z,87.72
2023-01-25T03:37:13.429Z,87.44
2023-01-25T03:39:44.013Z,87.40
2023-01-25T03:42:14.047Z,87.77
2023-01-25T03:44:44.827Z,87.39
2023-01-25T03:47:14.848Z,87.23
2023-01-25T03:49:44.804Z,87.88
2023-01-25T03:52:15.371Z,87.74
2023-01-25T03:54:44.953Z,88.16
2023-01-25T03:57:15.031Z,87.77
2023-01-25T03:59:45.973Z,88.16
2023-01-25T04:02:15.285Z,87.99
2023-01-25T04:04:44.909Z,88.19
2023-01-25T04:07:14.616Z,88.29
2023-01-25T04:09:44.215Z,88.36
2023-01-25T04:12:13.900Z,89.26
2023-01-25T04:14:44.922Z,88.70
2023-01-25T04:17:16.279Z,88.88
2023-01-25T04:19:59.248Z,88.65
2023-01-25T04:22:30.207Z,87.90
2023-01-25T04:24:59.605Z,87.91
2023-01-25T04:27:29.839Z,89.31
2023-01-25T04:30:01.204Z,88.62
2023-01-25T04:32:32.279Z,88.27
2023-01-25T04:35:02.011Z,88.87
2023-01-25T04:37:31.561Z,89.06
2023-01-25T04:40:01.445Z,88.90
2023-01-25T04:42:32.408Z,88.51
2023-01-25T04:45:01.912Z,87.86
2023-01-25T04:47:31.740Z,87.78
2023-01-25T04:50:01.503Z,88.20
2023-01-25T04:52:32.863Z,88.31
2023-01-25T04:55:02.715Z,88.55
2023-01-25T04:57:34.316Z,88.57
2023-01-25T05:00:04.131Z,88.28
2023-01-25T05:02:34.618Z,88.34
2023-01-25T05:05:05.273Z,88.20
2023-01-25T05:07:34.598Z,88.28
2023-01-25T05:10:05.056Z,88.32
2023-01-25T05:12:35.126Z,88.79
2023-01-25T05:15:07.016Z,88.85
2023-01-25T05:17:36.578Z,89.03
2023-01-25T05:20:06.579Z,89.14
2023-01-25T05:22:36.349Z,89.14
2023-01-25T05:25:08.378Z,88.79
2023-01-25T05:27:39.660Z,88.37
2023-01-25T05:30:22.637Z,88.33
2023-01-25T05:32:53.772Z,88.33
2023-01-25T05:35:23.978Z,88.54
2023-01-25T05:38:00.151Z,88.42
2023-01-25T05:40:29.889Z,88.22
2023-01-25T05:43:02.275Z,88.00
2023-01-25T05:45:32.405Z,88.54
2023-01-25T05:48:04.019Z,88.41
2023-01-25T05:50:33.410Z,87.98
2023-01-25T05:53:04.854Z,87.70
2023-01-25T05:55:36.921Z,87.81
2023-01-25T05:58:07.894Z,87.83
2023-01-25T06:00:37.306Z,87.94
2023-01-25T06:03:06.939Z,88.08
2023-01-25T06:05:38.377Z,88.06
2023-01-25T06:08:07.605Z,88.25
2023-01-25T06:10:38.899Z,88.33
2023-01-25T06:13:08.124Z,88.61
2023-01-25T06:15:37.793Z,88.31
2023-01-25T06:18:08.871Z,88.52
2023-01-25T06:20:42.830Z,88.40
2023-01-25T06:23:12.526Z,88.02
2023-01-25T06:25:42.112Z,88.07
2023-01-25T06:28:11.555Z,88.16
2023-01-25T06:30:41.084Z,88.44
2023-01-25T06:33:10.559Z,88.43
2023-01-25T06:35:40.565Z,88.52
2023-01-25T06:38:10.474Z,88.35
2023-01-25T06:40:40.027Z,88.53
2023-01-25T06:43:10.939Z,88.40
2023-01-25T06:45:40.174Z,88.49
2023-01-25T06:48:09.390Z,88.67
2023-01-25T06:50:39.174Z,88.68
2023-01-25T06:53:08.381Z,88.74
2023-01-25T06:55:37.822Z,88.50
2023-01-25T06:58:07.040Z,88.75
2023-01-25T07:00:36.553Z,88.65
2023-01-25T07:03:05.953Z,88.63
2023-01-25T07:05:36.014Z,88.73
2023-01-25T07:08:05.542Z,88.60
2023-01-25T07:10:34.888Z,88.94
2023-01-25T07:13:04.103Z,88.67
2023-01-25T07:15:33.715Z,89.15
2023-01-25T07:18:15.628Z,88.72
2023-01-25T07:20:34.664Z,88.88
2023-01-25T07:23:04.378Z,88.48
2023-01-25T07:25:34.309Z,88.79
2023-01-25T07:28:03.594Z,88.70
2023-01-25T07:30:33.089Z,88.83
2023-01-25T07:33:02.324Z,89.06
2023-01-25T07:35:32.959Z,88.52
2023-01-25T07:38:02.828Z,88.56
2023-01-25T07:40:32.244Z,88.98
2023-01-25T07:43:02.058Z,88.90
2023-01-25T07:45:32.520Z,89.03
2023-01-25T07:48:04.096Z,88.71
2023-01-25T07:50:33.760Z,89.10
2023-01-25T07:53:03.454Z,88.74
2023-01-25T07:55:32.994Z,89.01
2023-01-25T07:58:02.872Z,88.78
2023-01-25T08:00:32.438Z,89.05
2023-01-25T08:03:01.633Z,89.08
2023-01-25T08:05:31.376Z,88.86
2023-01-25T08:08:00.627Z,89.00
2023-01-25T08:10:30.307Z,88.78
2023-01-25T08:12:59.538Z,88.58
2023-01-25T08:15:29.003Z,88.58
2023-01-25T08:18:02.424Z,88.83
2023-01-25T08:20:31.790Z,89.00
2023-01-25T08:23:01.006Z,89.09
2023-01-25T08:25:30.237Z,89.11
2023-01-25T08:27:59.512Z,89.04
2023-01-25T08:30:29.057Z,88.72
2023-01-25T08:32:58.369Z,88.77
2023-01-25T08:35:27.809Z,88.91
2023-01-25T08:37:57.047Z,88.74
2023-01-25T08:40:26.543Z,88.71
2023-01-25T08:42:55.806Z,89.27
2023-01-25T08:45:25.560Z,88.67
2023-01-25T08:47:54.868Z,88.95
2023-01-25T08:50:24.427Z,89.14
2023-01-25T08:52:53.858Z,89.15
2023-01-25T08:55:23.660Z,88.84
2023-01-25T08:57:55.102Z,88.89
2023-01-25T09:00:24.876Z,88.79
2023-01-25T09:02:54.121Z,89.00
2023-01-25T09:05:23.349Z,88.89
2023-01-25T09:07:52.739Z,88.19
2023-01-25T09:10:22.629Z,88.33
2023-01-25T09:12:51.993Z,88.21
2023-01-25T09:15:22.773Z,88.33
2023-01-25T09:17:54.390Z,88.42
2023-01-25T09:20:24.354Z,88.19
2023-01-25T09:22:53.765Z,88.03
2023-01-25T09:25:22.995Z,88.19
2023-01-25T09:27:52.973Z,88.06
2023-01-25T09:30:30.627Z,88.21
2023-01-25T09:32:54.653Z,88.50
2023-01-25T09:35:23.874Z,88.07
2023-01-25T09:37:53.711Z,87.94
2023-01-25T09:40:24.611Z,88.29
2023-01-25T09:42:57.294Z,87.93
2023-01-25T09:45:34.664Z,88.09
2023-01-25T09:48:30.634Z,88.14
2023-01-25T09:51:18.266Z,88.16
2023-01-25T09:53:52.234Z,88.53
2023-01-25T09:56:30.585Z,88.78
2023-01-25T09:59:05.615Z,88.20
2023-01-25T10:01:41.017Z,88.44
2023-01-25T10:04:28.845Z,89.00
2023-01-25T10:07:02.143Z,88.45
2023-01-25T10:10:06.622Z,88.89
2023-01-25T10:12:40.385Z,88.77
2023-01-25T10:15:20.474Z,88.87
2023-01-25T10:18:04.433Z,88.42
2023-01-25T10:20:39.611Z,88.15
2023-01-25T10:23:31.847Z,87.95
2023-01-25T10:26:10.254Z,88.32
2023-01-25T10:28:45.435Z,88.43
2023-01-25T10:31:25.336Z,87.81
2023-01-25T10:33:57.630Z,87.87
2023-01-25T10:36:30.125Z,87.76
2023-01-25T10:39:00.248Z,87.74
2023-01-25T10:41:41.170Z,87.89
2023-01-25T10:44:28.822Z,88.08
2023-01-25T10:47:04.252Z,87.35
2023-01-25T10:49:45.827Z,87.23
2023-01-25T10:52:29.557Z,87.74
2023-01-25T10:55:22.735Z,87.31
2023-01-25T10:57:58.737Z,87.76
2023-01-25T11:00:30.753Z,88.02
2023-01-25T11:03:00.499Z,87.10
2023-01-25T11:05:41.704Z,86.85
2023-01-25T11:08:17.659Z,86.96
2023-01-25T11:10:47.105Z,87.37
2023-01-25T11:13:19.878Z,87.00
2023-01-25T11:15:52.750Z,86.89
2023-01-25T11:18:24.234Z,86.90
2023-01-25T11:21:08.189Z,86.80
2023-01-25T11:23:37.496Z,86.81
2023-01-25T11:26:20.626Z,87.23
2023-01-25T11:28:49.980Z,87.05
2023-01-25T11:31:21.970Z,87.15
2023-01-25T11:33:51.744Z,87.02
2023-01-25T11:36:36.175Z,86.96
2023-01-25T11:39:11.404Z,86.80
2023-01-25T11:42:01.952Z,87.18
2023-01-25T11:45:03.364Z,86.54
2023-01-25T11:48:05.414Z,86.96
2023-01-25T11:50:45.364Z,86.45
2023-01-25T11:53:36.195Z,86.59
2023-01-25T11:56:14.215Z,88.01
2023-01-25T11:59:03.862Z,86.82
2023-01-25T12:01:45.039Z,86.51
2023-01-25T12:04:34.512Z,86.43
2023-01-25T12:07:18.829Z,86.58
2023-01-25T12:10:13.492Z,86.51
2023-01-25T12:12:48.852Z,87.01
2023-01-25T12:15:30.255Z,87.36
2023-01-25T12:18:11.363Z,87.51
2023-01-25T12:21:03.021Z,86.88
2023-01-25T12:23:47.753Z,85.95
2023-01-25T12:26:31.548Z,86.51
2023-01-25T12:29:19.363Z,86.29
2023-01-25T12:31:58.075Z,85.94
2023-01-25T12:34:30.736Z,86.35
2023-01-25T12:37:03.446Z,86.25
2023-01-25T12:39:39.395Z,86.43
2023-01-25T12:42:14.852Z,86.74
2023-01-25T12:44:47.679Z,86.92
2023-01-25T12:47:20.648Z,86.84
2023-01-25T12:50:02.503Z,86.99
2023-01-25T12:52:40.547Z,87.32
2023-01-25T12:55:15.305Z,87.27
2023-01-25T12:57:51.188Z,87.31
2023-01-25T13:00:35.643Z,87.06
2023-01-25T13:03:41.717Z,86.94
2023-01-25T13:06:23.267Z,87.31
2023-01-25T13:09:12.360Z,87.00
2023-01-25T13:11:43.601Z,87.47
2023-01-25T13:14:22.129Z,86.47
2023-01-25T13:17:08.535Z,86.89
2023-01-25T13:19:32.797Z,86.73
2023-01-25T13:22:02.168Z,87.88
2023-01-25T13:24:35.988Z,86.91
2023-01-25T13:27:25.229Z,87.19
2023-01-25T13:29:59.460Z,86.52
2023-01-25T13:32:37.562Z,86.58
2023-01-25T13:35:10.247Z,86.14
2023-01-25T13:37:39.534Z,85.96
2023-01-25T13:40:38.385Z,86.43
2023-01-25T13:43:22.498Z,86.75
2023-01-25T13:45:53.379Z,86.90
2023-01-25T13:48:24.487Z,86.50
2023-01-25T13:51:02.205Z,86.80
2023-01-25T13:53:37.624Z,86.25
2023-01-25T13:56:09.427Z,87.37
2023-01-25T13:58:41.866Z,87.20
2023-01-25T14:01:12.452Z,86.66
2023-01-25T14:03:50.311Z,86.66
2023-01-25T14:06:30.833Z,86.63
2023-01-25T14:09:04.924Z,87.13
2023-01-25T14:11:36.389Z,87.47
2023-01-25T14:14:21.555Z,87.42
2023-01-25T14:19:37.018Z,87.77
2023-01-25T14:22:27.042Z,88.26
2023-01-25T14:25:17.459Z,87.79
2023-01-25T14:27:57.607Z,87.93
2023-01-25T14:30:34.546Z,87.79
2023-01-25T14:33:07.598Z,88.12
2023-01-25T14:35:54.633Z,88.19
2023-01-25T14:38:27.421Z,88.28
2023-01-25T14:40:59.567Z,88.30
2023-01-25T14:43:29.955Z,88.48
2023-01-25T14:45:59.200Z,88.24
2023-01-25T14:48:40.639Z,88.64
2023-01-25T14:51:16.224Z,88.27
2023-01-25T14:53:47.814Z,88.19
2023-01-25T14:56:32.171Z,88.04
2023-01-25T14:59:02.264Z,88.77
2023-01-25T15:01:35.185Z,88.80
2023-01-25T15:04:05.514Z,88.91
2023-01-25T15:06:35.412Z,89.02
2023-01-25T15:09:04.984Z,88.66
2023-01-25T15:11:40.061Z,88.98
2023-01-25T15:14:18.538Z,89.04
2023-01-25T15:16:48.004Z,89.40
2023-01-25T15:19:25.994Z,89.39
2023-01-25T15:22:01.969Z,88.98
2023-01-25T15:24:31.631Z,89.05
2023-01-25T15:27:00.828Z,89.33
2023-01-25T15:29:30.445Z,89.53
2023-01-25T15:31:59.847Z,89.73
2023-01-25T15:34:33.037Z,89.76
2023-01-25T15:37:02.396Z,89.69
2023-01-25T15:39:32.898Z,89.72
2023-01-25T15:42:02.350Z,89.55
2023-01-25T15:44:32.258Z,89.61
2023-01-25T15:47:02.645Z,89.52
2023-01-25T15:49:32.484Z,89.51
2023-01-25T15:52:01.688Z,89.64
2023-01-25T15:54:31.059Z,89.59
2023-01-25T15:57:01.014Z,89.65
2023-01-25T15:59:30.882Z,89.79
2023-01-25T16:02:00.439Z,89.88
2023-01-25T16:04:29.722Z,90.30
2023-01-25T16:07:00.977Z,90.27
2023-01-25T16:09:33.406Z,90.27
2023-01-25T16:12:03.147Z,90.21
2023-01-25T16:14:32.824Z,90.09
2023-01-25T16:17:04.113Z,90.16
2023-01-25T16:19:34.224Z,90.28
2023-01-25T16:22:03.611Z,90.38
2023-01-25T16:24:32.887Z,90.55
2023-01-25T16:27:02.494Z,90.61
2023-01-25T16:29:31.832Z,90.37
2023-01-25T16:32:01.339Z,90.59
2023-01-25T16:34:31.026Z,90.92
2023-01-25T16:37:01.894Z,91.18
2023-01-25T16:39:32.250Z,91.11
2023-01-25T16:42:01.575Z,91.17
2023-01-25T16:44:31.061Z,91.15
2023-01-25T16:47:00.617Z,91.08
2023-01-25T16:49:30.809Z,90.98
2023-01-25T16:52:02.935Z,91.07
2023-01-25T16:54:32.698Z,91.11
2023-01-25T16:57:18.648Z,91.19
2023-01-25T16:59:33.393Z,91.37
2023-01-25T17:02:02.793Z,91.05
2023-01-25T17:04:32.036Z,91.07
2023-01-25T17:07:01.263Z,91.16
2023-01-25T17:09:30.779Z,91.18
2023-01-25T17:12:00.031Z,90.99
2023-01-25T17:14:29.270Z,90.99
2023-01-25T17:16:58.831Z,91.10
2023-01-25T17:19:28.170Z,91.37
2023-01-25T17:21:59.145Z,91.18
2023-01-25T17:24:29.120Z,91.23
2023-01-25T17:27:00.925Z,91.36
2023-01-25T17:29:30.404Z,91.79
2023-01-25T17:32:00.463Z,91.65
2023-01-25T17:34:29.741Z,91.47
2023-01-25T17:36:59.041Z,91.23
2023-01-25T17:39:28.283Z,90.81
2023-01-25T17:41:57.951Z,91.16
2023-01-25T17:44:27.360Z,90.69
2023-01-25T17:46:57.099Z,90.84
2023-01-25T17:49:28.047Z,91.21
2023-01-25T17:51:57.465Z,90.85
2023-01-25T17:54:27.875Z,91.21
2023-01-25T17:56:57.128Z,91.37
2023-01-25T17:59:26.589Z,91.54
2023-01-25T18:01:55.919Z,91.63
2023-01-25T18:04:25.554Z,91.49
2023-01-25T18:06:54.993Z,91.77
2023-01-25T18:09:25.096Z,91.94
2023-01-25T18:11:54.648Z,91.87
2023-01-25T18:14:23.937Z,91.98
2023-01-25T18:16:53.992Z,91.90
2023-01-25T18:19:23.216Z,91.89
2023-01-25T18:21:52.558Z,92.15
2023-01-25T18:24:34.051Z,91.82
2023-01-25T18:27:09.080Z,91.88
2023-01-25T18:29:50.550Z,91.83
2023-01-25T18:32:20.200Z,91.83
2023-01-25T18:34:49.571Z,91.96
2023-01-25T18:37:21.265Z,91.99
2023-01-25T18:39:53.051Z,91.96
2023-01-25T18:42:24.971Z,92.19
2023-01-25T18:44:55.543Z,92.19
2023-01-25T18:47:25.482Z,92.21
2023-01-25T18:49:55.117Z,92.37
2023-01-25T18:52:25.048Z,92.45
2023-01-25T18:54:55.036Z,92.31
2023-01-25T18:57:25.356Z,92.21
2023-01-25T18:59:55.246Z,92.27
2023-01-25T19:02:25.131Z,92.29
2023-01-25T19:04:55.732Z,92.13
2023-01-25T19:07:25.185Z,92.27
2023-01-25T19:09:54.542Z,92.44
2023-01-25T19:12:23.862Z,92.43
2023-01-25T19:14:53.148Z,92.43
2023-01-25T19:17:22.558Z,92.55
2023-01-25T19:19:52.413Z,92.48
2023-01-25T19:22:21.934Z,92.65
2023-01-25T19:24:51.412Z,92.66
2023-01-25T19:27:20.771Z,92.50
2023-01-25T19:29:50.411Z,92.55
2023-01-25T19:32:19.761Z,92.49
2023-01-25T19:34:49.419Z,92.46
2023-01-25T19:37:18.706Z,92.15
2023-01-25T19:39:48.501Z,92.44
2023-01-25T19:42:18.756Z,92.39
2023-01-25T19:44:48.765Z,92.33
2023-01-25T19:47:18.317Z,92.23
2023-01-25T19:49:49.287Z,91.95
2023-01-25T19:52:18.787Z,92.10
2023-01-25T19:54:48.064Z,92.25
2023-01-25T19:57:17.480Z,92.45
2023-01-25T19:59:46.900Z,92.68
2023-01-25T20:02:16.351Z,93.39
2023-01-25T20:04:45.652Z,93.62
2023-01-25T20:07:15.364Z,94.04
2023-01-25T20:09:44.633Z,94.14
2023-01-25T20:12:14.034Z,94.21
2023-01-25T20:14:44.462Z,94.42
2023-01-25T20:17:14.235Z,94.82
2023-01-25T20:19:44.538Z,95.19
2023-01-25T20:22:14.018Z,95.18
2023-01-25T20:24:43.407Z,95.23
2023-01-25T20:27:12.677Z,95.27
2023-01-25T20:29:42.244Z,95.23
2023-01-25T20:32:26.638Z,95.63
2023-01-25T20:34:43.000Z,95.58
2023-01-25T20:37:12.223Z,95.73
2023-01-25T20:39:41.837Z,95.89
2023-01-25T20:42:11.406Z,95.89
2023-01-25T20:44:40.849Z,96.11
2023-01-25T20:47:10.296Z,96.29
2023-01-25T20:49:41.203Z,96.19
2023-01-25T20:52:12.346Z,96.24
2023-01-25T20:54:42.031Z,96.42
2023-01-25T20:57:11.472Z,96.39
2023-01-25T20:59:41.044Z,96.73
2023-01-25T21:02:11.985Z,96.87
2023-01-25T21:04:41.580Z,96.99
2023-01-25T21:07:11.488Z,97.09
2023-01-25T21:09:42.917Z,97.15
2023-01-25T21:12:12.466Z,97.26
2023-01-25T21:14:41.781Z,97.21
2023-01-25T21:17:11.541Z,97.20
2023-01-25T21:19:41.136Z,97.36
2023-01-25T21:22:10.742Z,97.36
2023-01-25T21:24:40.165Z,97.31
2023-01-25T21:27:09.707Z,97.43
2023-01-25T21:29:38.919Z,97.47
2023-01-25T21:32:08.603Z,97.61
2023-01-25T21:34:38.115Z,97.72
2023-01-25T21:37:07.686Z,97.55
2023-01-25T21:39:37.081Z,97.63
2023-01-25T21:42:06.603Z,97.70
2023-01-25T21:44:53.786Z,97.85
2023-01-25T21:47:30.323Z,97.92
2023-01-25T21:50:12.527Z,97.95
2023-01-25T21:52:42.545Z,98.06
2023-01-25T21:55:13.204Z,97.86
2023-01-25T21:57:44.675Z,98.12
2023-01-25T22:00:16.299Z,98.09
2023-01-25T22:02:46.141Z,98.18
2023-01-25T22:05:15.502Z,98.20
2023-01-25T22:07:44.883Z,98.16
2023-01-25T22:10:14.175Z,98.26
2023-01-25T22:12:45.766Z,98.10
2023-01-25T22:15:15.039Z,98.18
2023-01-25T22:17:45.453Z,98.13
2023-01-25T22:20:14.665Z,98.13
2023-01-25T22:22:44.094Z,98.15
2023-01-25T22:25:13.360Z,98.14
2023-01-25T22:27:48.677Z,98.33
2023-01-25T22:30:17.911Z,98.33
2023-01-25T22:32:47.399Z,98.30
2023-01-25T22:35:16.977Z,98.35
2023-01-25T22:37:46.434Z,98.43
2023-01-25T22:40:15.975Z,98.38
2023-01-25T22:42:45.529Z,98.34
2023-01-25T22:45:16.384Z,98.37
2023-01-25T22:47:46.270Z,98.50
2023-01-25T22:50:15.640Z,98.51
2023-01-25T22:52:45.361Z,98.47
2023-01-25T22:55:14.635Z,98.33
2023-01-25T22:57:44.103Z,98.38
2023-01-25T23:00:14.418Z,98.63
2023-01-25T23:02:43.928Z,98.57
2023-01-25T23:05:13.161Z,98.44
2023-01-25T23:07:42.788Z,98.42
2023-01-25T23:10:12.521Z,98.52
2023-01-25T23:12:42.050Z,98.48
2023-01-25T23:15:13.662Z,98.42
2023-01-25T23:18:01.575Z,98.44
2023-01-25T23:20:31.385Z,98.53
2023-01-25T23:23:00.606Z,98.47
2023-01-25T23:25:31.189Z,98.36
2023-01-25T23:28:00.762Z,98.44
2023-01-25T23:30:30.407Z,98.45
2023-01-25T23:33:00.063Z,98.49
2023-01-25T23:35:29.613Z,98.66
2023-01-25T23:37:58.971Z,98.61
2023-01-25T23:40:28.226Z,98.53
2023-01-25T23:42:57.725Z,98.30
2023-01-25T23:45:27.024Z,98.37
2023-01-25T23:47:56.372Z,98.65
2023-01-25T23:50:25.631Z,98.73
2023-01-25T23:52:54.849Z,98.64
2023-01-25T23:55:24.079Z,98.71
2023-01-25T23:57:54.624Z,98.71
